sensor_id;sensor_type;location;lat;lon;timestamp;P1;durP1;ratioP1;P2;durP2;ratioP2
51732;SDS011;39139;53.144;6.244;2023-07-29T00:00:39;16.10;;;11.45;;
51732;SDS011;39139;53.144;6.244;2023-07-29T00:03:05;16.38;;;11.75;;
51732;SDS011;39139;53.144;6.244;2023-07-29T00:05:32;12.50;;;10.75;;
51732;SDS011;39139;53.144;6.244;2023-07-29T00:07:57;16.02;;;12.38;;
51732;SDS011;39139;53.144;6.244;2023-07-29T00:10:23;16.40;;;11.85;;
51732;SDS011;39139;53.144;6.244;2023-07-29T00:12:49;13.90;;;12.07;;
51732;SDS011;39139;53.144;6.244;2023-07-29T00:15:14;12.48;;;10.20;;
51732;SDS011;39139;53.144;6.244;2023-07-29T00:17:40;16.23;;;12.68;;
51732;SDS011;39139;53.144;6.244;2023-07-29T00:20:06;14.43;;;11.65;;
51732;SDS011;39139;53.144;6.244;2023-07-29T00:22:32;12.57;;;11.38;;
51732;SDS011;39139;53.144;6.244;2023-07-29T00:24:57;14.73;;;11.32;;
51732;SDS011;39139;53.144;6.244;2023-07-29T00:27:24;14.80;;;12.52;;
51732;SDS011;39139;53.144;6.244;2023-07-29T00:29:50;14.98;;;13.27;;
51732;SDS011;39139;53.144;6.244;2023-07-29T00:32:16;14.98;;;13.30;;
51732;SDS011;39139;53.144;6.244;2023-07-29T00:34:41;14.45;;;12.93;;
51732;SDS011;39139;53.144;6.244;2023-07-29T00:37:07;13.60;;;11.82;;
51732;SDS011;39139;53.144;6.244;2023-07-29T00:39:33;15.55;;;12.98;;
51732;SDS011;39139;53.144;6.244;2023-07-29T00:41:58;16.83;;;12.88;;
51732;SDS011;39139;53.144;6.244;2023-07-29T00:44:24;17.48;;;12.45;;
51732;SDS011;39139;53.144;6.244;2023-07-29T00:46:51;13.70;;;12.20;;
51732;SDS011;39139;53.144;6.244;2023-07-29T00:49:18;15.27;;;12.95;;
51732;SDS011;39139;53.144;6.244;2023-07-29T00:51:44;14.88;;;12.13;;
51732;SDS011;39139;53.144;6.244;2023-07-29T00:54:10;12.38;;;11.10;;
51732;SDS011;39139;53.144;6.244;2023-07-29T00:56:39;16.35;;;13.00;;
51732;SDS011;39139;53.144;6.244;2023-07-29T00:59:05;15.00;;;12.68;;
51732;SDS011;39139;53.144;6.244;2023-07-29T01:01:32;13.88;;;11.95;;
51732;SDS011;39139;53.144;6.244;2023-07-29T01:03:58;15.43;;;13.65;;
51732;SDS011;39139;53.144;6.244;2023-07-29T01:09:36;16.63;;;11.80;;
51732;SDS011;39139;53.144;6.244;2023-07-29T01:12:24;13.60;;;11.93;;
51732;SDS011;39139;53.144;6.244;2023-07-29T01:15:01;15.13;;;11.95;;
51732;SDS011;39139;53.144;6.244;2023-07-29T01:17:38;17.15;;;14.50;;
51732;SDS011;39139;53.144;6.244;2023-07-29T01:20:15;16.38;;;12.90;;
51732;SDS011;39139;53.144;6.244;2023-07-29T01:22:42;16.52;;;13.32;;
51732;SDS011;39139;53.144;6.244;2023-07-29T01:25:08;16.75;;;12.13;;
51732;SDS011;39139;53.144;6.244;2023-07-29T01:27:33;15.85;;;12.68;;
51732;SDS011;39139;53.144;6.244;2023-07-29T01:29:59;14.88;;;12.43;;
51732;SDS011;39139;53.144;6.244;2023-07-29T01:32:43;13.27;;;11.82;;
51732;SDS011;39139;53.144;6.244;2023-07-29T01:38:12;14.40;;;12.18;;
51732;SDS011;39139;53.144;6.244;2023-07-29T01:40:48;16.27;;;13.13;;
51732;SDS011;39139;53.144;6.244;2023-07-29T01:43:15;15.07;;;13.55;;
51732;SDS011;39139;53.144;6.244;2023-07-29T01:45:43;17.52;;;12.32;;
51732;SDS011;39139;53.144;6.244;2023-07-29T01:48:09;14.25;;;12.10;;
51732;SDS011;39139;53.144;6.244;2023-07-29T01:50:35;13.85;;;12.38;;
51732;SDS011;39139;53.144;6.244;2023-07-29T01:53:01;15.00;;;12.73;;
51732;SDS011;39139;53.144;6.244;2023-07-29T01:55:26;14.93;;;13.30;;
51732;SDS011;39139;53.144;6.244;2023-07-29T01:57:52;17.58;;;12.73;;
51732;SDS011;39139;53.144;6.244;2023-07-29T02:00:18;16.17;;;13.60;;
51732;SDS011;39139;53.144;6.244;2023-07-29T02:02:44;16.60;;;13.13;;
51732;SDS011;39139;53.144;6.244;2023-07-29T02:05:10;15.80;;;13.65;;
51732;SDS011;39139;53.144;6.244;2023-07-29T02:07:36;18.75;;;13.45;;
51732;SDS011;39139;53.144;6.244;2023-07-29T02:10:02;14.95;;;13.35;;
51732;SDS011;39139;53.144;6.244;2023-07-29T02:12:28;15.13;;;13.57;;
51732;SDS011;39139;53.144;6.244;2023-07-29T02:14:53;15.20;;;12.95;;
51732;SDS011;39139;53.144;6.244;2023-07-29T02:17:19;16.13;;;12.73;;
51732;SDS011;39139;53.144;6.244;2023-07-29T02:19:46;18.40;;;12.80;;
51732;SDS011;39139;53.144;6.244;2023-07-29T02:22:15;15.23;;;12.13;;
51732;SDS011;39139;53.144;6.244;2023-07-29T02:24:42;19.13;;;12.70;;
51732;SDS011;39139;53.144;6.244;2023-07-29T02:27:08;16.92;;;13.15;;
51732;SDS011;39139;53.144;6.244;2023-07-29T02:29:33;15.07;;;12.13;;
51732;SDS011;39139;53.144;6.244;2023-07-29T02:31:59;13.70;;;12.25;;
51732;SDS011;39139;53.144;6.244;2023-07-29T02:34:25;17.23;;;12.32;;
51732;SDS011;39139;53.144;6.244;2023-07-29T02:36:51;15.43;;;12.60;;
51732;SDS011;39139;53.144;6.244;2023-07-29T02:39:16;15.80;;;11.98;;
51732;SDS011;39139;53.144;6.244;2023-07-29T02:41:42;13.15;;;11.32;;
51732;SDS011;39139;53.144;6.244;2023-07-29T02:44:08;13.35;;;11.95;;
51732;SDS011;39139;53.144;6.244;2023-07-29T02:46:34;17.05;;;12.50;;
51732;SDS011;39139;53.144;6.244;2023-07-29T02:49:01;16.35;;;10.73;;
51732;SDS011;39139;53.144;6.244;2023-07-29T02:51:27;13.65;;;10.57;;
51732;SDS011;39139;53.144;6.244;2023-07-29T02:53:53;13.57;;;10.77;;
51732;SDS011;39139;53.144;6.244;2023-07-29T02:56:19;14.65;;;10.13;;
51732;SDS011;39139;53.144;6.244;2023-07-29T02:58:44;13.95;;;10.38;;
51732;SDS011;39139;53.144;6.244;2023-07-29T03:01:10;13.68;;;10.48;;
51732;SDS011;39139;53.144;6.244;2023-07-29T03:03:36;15.30;;;10.27;;
51732;SDS011;39139;53.144;6.244;2023-07-29T03:06:02;11.57;;;10.02;;
51732;SDS011;39139;53.144;6.244;2023-07-29T03:08:29;10.98;;;9.23;;
51732;SDS011;39139;53.144;6.244;2023-07-29T03:10:55;13.57;;;8.63;;
51732;SDS011;39139;53.144;6.244;2023-07-29T03:13:21;13.45;;;9.15;;
51732;SDS011;39139;53.144;6.244;2023-07-29T03:15:47;12.63;;;9.45;;
51732;SDS011;39139;53.144;6.244;2023-07-29T03:18:13;12.10;;;9.50;;
51732;SDS011;39139;53.144;6.244;2023-07-29T03:20:39;14.35;;;10.75;;
51732;SDS011;39139;53.144;6.244;2023-07-29T03:23:05;14.73;;;10.00;;
51732;SDS011;39139;53.144;6.244;2023-07-29T03:25:31;12.98;;;9.57;;
51732;SDS011;39139;53.144;6.244;2023-07-29T03:27:57;13.25;;;9.10;;
51732;SDS011;39139;53.144;6.244;2023-07-29T03:30:22;12.38;;;9.23;;
51732;SDS011;39139;53.144;6.244;2023-07-29T03:32:48;14.13;;;8.30;;
51732;SDS011;39139;53.144;6.244;2023-07-29T03:35:14;11.13;;;8.88;;
51732;SDS011;39139;53.144;6.244;2023-07-29T03:37:40;11.68;;;8.77;;
51732;SDS011;39139;53.144;6.244;2023-07-29T03:40:06;15.23;;;9.80;;
51732;SDS011;39139;53.144;6.244;2023-07-29T03:42:34;11.07;;;8.43;;
51732;SDS011;39139;53.144;6.244;2023-07-29T03:45:00;10.85;;;8.15;;
51732;SDS011;39139;53.144;6.244;2023-07-29T03:47:26;13.52;;;9.35;;
51732;SDS011;39139;53.144;6.244;2023-07-29T03:49:52;12.30;;;8.75;;
51732;SDS011;39139;53.144;6.244;2023-07-29T03:52:17;10.77;;;8.95;;
51732;SDS011;39139;53.144;6.244;2023-07-29T03:54:43;9.63;;;8.63;;
51732;SDS011;39139;53.144;6.244;2023-07-29T03:57:09;11.45;;;8.85;;
51732;SDS011;39139;53.144;6.244;2023-07-29T03:59:34;11.05;;;9.80;;
51732;SDS011;39139;53.144;6.244;2023-07-29T04:02:00;11.30;;;8.77;;
51732;SDS011;39139;53.144;6.244;2023-07-29T04:04:26;14.23;;;9.18;;
51732;SDS011;39139;53.144;6.244;2023-07-29T04:06:51;10.63;;;8.68;;
51732;SDS011;39139;53.144;6.244;2023-07-29T04:09:17;11.73;;;8.75;;
51732;SDS011;39139;53.144;6.244;2023-07-29T04:11:43;11.48;;;8.63;;
51732;SDS011;39139;53.144;6.244;2023-07-29T04:14:08;15.05;;;8.98;;
51732;SDS011;39139;53.144;6.244;2023-07-29T04:16:34;12.27;;;8.82;;
51732;SDS011;39139;53.144;6.244;2023-07-29T04:19:00;10.00;;;8.57;;
51732;SDS011;39139;53.144;6.244;2023-07-29T04:21:25;16.05;;;9.52;;
51732;SDS011;39139;53.144;6.244;2023-07-29T04:23:51;10.52;;;7.78;;
51732;SDS011;39139;53.144;6.244;2023-07-29T04:26:17;11.90;;;8.57;;
51732;SDS011;39139;53.144;6.244;2023-07-29T04:28:43;15.98;;;9.43;;
51732;SDS011;39139;53.144;6.244;2023-07-29T04:31:08;10.88;;;9.07;;
51732;SDS011;39139;53.144;6.244;2023-07-29T04:33:34;10.48;;;8.65;;
51732;SDS011;39139;53.144;6.244;2023-07-29T04:36:00;11.85;;;9.07;;
51732;SDS011;39139;53.144;6.244;2023-07-29T04:38:30;13.40;;;8.35;;
51732;SDS011;39139;53.144;6.244;2023-07-29T04:40:57;14.63;;;9.02;;
51732;SDS011;39139;53.144;6.244;2023-07-29T04:43:27;8.90;;;7.57;;
51732;SDS011;39139;53.144;6.244;2023-07-29T04:45:53;9.20;;;8.25;;
51732;SDS011;39139;53.144;6.244;2023-07-29T04:48:19;12.57;;;8.38;;
51732;SDS011;39139;53.144;6.244;2023-07-29T04:50:45;12.23;;;7.80;;
51732;SDS011;39139;53.144;6.244;2023-07-29T04:53:11;12.77;;;8.43;;
51732;SDS011;39139;53.144;6.244;2023-07-29T04:55:36;9.50;;;8.07;;
51732;SDS011;39139;53.144;6.244;2023-07-29T04:58:02;12.80;;;8.38;;
51732;SDS011;39139;53.144;6.244;2023-07-29T05:00:28;15.20;;;8.60;;
51732;SDS011;39139;53.144;6.244;2023-07-29T05:02:53;11.90;;;7.35;;
51732;SDS011;39139;53.144;6.244;2023-07-29T05:05:19;12.68;;;7.05;;
51732;SDS011;39139;53.144;6.244;2023-07-29T05:07:45;9.65;;;7.05;;
51732;SDS011;39139;53.144;6.244;2023-07-29T05:10:10;14.75;;;7.15;;
51732;SDS011;39139;53.144;6.244;2023-07-29T05:12:36;12.50;;;6.82;;
51732;SDS011;39139;53.144;6.244;2023-07-29T05:15:02;11.60;;;6.40;;
51732;SDS011;39139;53.144;6.244;2023-07-29T05:17:28;7.68;;;5.78;;
51732;SDS011;39139;53.144;6.244;2023-07-29T05:19:54;11.13;;;6.60;;
51732;SDS011;39139;53.144;6.244;2023-07-29T05:22:19;7.70;;;6.55;;
51732;SDS011;39139;53.144;6.244;2023-07-29T05:24:45;12.20;;;5.85;;
51732;SDS011;39139;53.144;6.244;2023-07-29T05:27:11;9.27;;;5.70;;
51732;SDS011;39139;53.144;6.244;2023-07-29T05:29:36;11.75;;;6.07;;
51732;SDS011;39139;53.144;6.244;2023-07-29T05:32:02;7.38;;;5.75;;
51732;SDS011;39139;53.144;6.244;2023-07-29T05:34:28;7.43;;;5.22;;
51732;SDS011;39139;53.144;6.244;2023-07-29T05:36:54;7.28;;;4.97;;
51732;SDS011;39139;53.144;6.244;2023-07-29T05:39:19;6.65;;;5.15;;
51732;SDS011;39139;53.144;6.244;2023-07-29T05:41:45;10.23;;;5.22;;
51732;SDS011;39139;53.144;6.244;2023-07-29T05:44:12;6.32;;;4.38;;
51732;SDS011;39139;53.144;6.244;2023-07-29T05:46:38;8.60;;;4.80;;
51732;SDS011;39139;53.144;6.244;2023-07-29T05:49:03;6.85;;;4.72;;
51732;SDS011;39139;53.144;6.244;2023-07-29T05:51:29;7.72;;;4.70;;
51732;SDS011;39139;53.144;6.244;2023-07-29T05:53:55;9.52;;;5.40;;
51732;SDS011;39139;53.144;6.244;2023-07-29T05:56:20;6.70;;;4.82;;
51732;SDS011;39139;53.144;6.244;2023-07-29T05:58:46;6.70;;;4.95;;
51732;SDS011;39139;53.144;6.244;2023-07-29T06:01:11;8.50;;;4.85;;
51732;SDS011;39139;53.144;6.244;2023-07-29T06:03:37;5.18;;;4.68;;
51732;SDS011;39139;53.144;6.244;2023-07-29T06:06:03;7.57;;;4.68;;
51732;SDS011;39139;53.144;6.244;2023-07-29T06:08:28;5.85;;;4.38;;
51732;SDS011;39139;53.144;6.244;2023-07-29T06:10:54;9.50;;;4.85;;
51732;SDS011;39139;53.144;6.244;2023-07-29T06:13:20;4.60;;;4.20;;
51732;SDS011;39139;53.144;6.244;2023-07-29T06:15:45;8.57;;;4.75;;
51732;SDS011;39139;53.144;6.244;2023-07-29T06:18:11;11.15;;;5.00;;
51732;SDS011;39139;53.144;6.244;2023-07-29T06:20:37;8.45;;;5.13;;
51732;SDS011;39139;53.144;6.244;2023-07-29T06:23:03;5.80;;;4.03;;
51732;SDS011;39139;53.144;6.244;2023-07-29T06:25:29;6.05;;;3.97;;
51732;SDS011;39139;53.144;6.244;2023-07-29T06:27:54;8.40;;;4.63;;
51732;SDS011;39139;53.144;6.244;2023-07-29T06:30:20;8.13;;;3.95;;
51732;SDS011;39139;53.144;6.244;2023-07-29T06:32:46;11.48;;;4.35;;
51732;SDS011;39139;53.144;6.244;2023-07-29T06:35:12;12.32;;;4.30;;
51732;SDS011;39139;53.144;6.244;2023-07-29T06:37:37;5.72;;;4.40;;
51732;SDS011;39139;53.144;6.244;2023-07-29T06:40:03;7.32;;;4.65;;
51732;SDS011;39139;53.144;6.244;2023-07-29T06:42:29;11.57;;;5.45;;
51732;SDS011;39139;53.144;6.244;2023-07-29T06:44:55;9.13;;;5.05;;
51732;SDS011;39139;53.144;6.244;2023-07-29T06:47:20;7.85;;;4.45;;
51732;SDS011;39139;53.144;6.244;2023-07-29T06:49:46;10.43;;;4.90;;
51732;SDS011;39139;53.144;6.244;2023-07-29T06:52:12;12.85;;;5.20;;
51732;SDS011;39139;53.144;6.244;2023-07-29T06:54:38;12.43;;;5.30;;
51732;SDS011;39139;53.144;6.244;2023-07-29T06:57:03;6.78;;;4.25;;
51732;SDS011;39139;53.144;6.244;2023-07-29T06:59:29;11.38;;;4.47;;
51732;SDS011;39139;53.144;6.244;2023-07-29T07:01:55;12.93;;;5.05;;
51732;SDS011;39139;53.144;6.244;2023-07-29T07:04:21;9.93;;;4.50;;
51732;SDS011;39139;53.144;6.244;2023-07-29T07:06:46;7.35;;;4.35;;
51732;SDS011;39139;53.144;6.244;2023-07-29T07:09:12;6.68;;;4.22;;
51732;SDS011;39139;53.144;6.244;2023-07-29T07:11:38;10.95;;;4.10;;
51732;SDS011;39139;53.144;6.244;2023-07-29T07:14:03;9.68;;;3.88;;
51732;SDS011;39139;53.144;6.244;2023-07-29T07:16:29;7.53;;;4.28;;
51732;SDS011;39139;53.144;6.244;2023-07-29T07:18:55;7.75;;;3.72;;
51732;SDS011;39139;53.144;6.244;2023-07-29T07:21:21;14.32;;;4.35;;
51732;SDS011;39139;53.144;6.244;2023-07-29T07:23:49;11.35;;;3.63;;
51732;SDS011;39139;53.144;6.244;2023-07-29T07:26:15;11.02;;;4.25;;
51732;SDS011;39139;53.144;6.244;2023-07-29T07:28:41;15.15;;;4.60;;
51732;SDS011;39139;53.144;6.244;2023-07-29T07:31:06;8.75;;;3.65;;
51732;SDS011;39139;53.144;6.244;2023-07-29T07:33:32;14.50;;;4.45;;
51732;SDS011;39139;53.144;6.244;2023-07-29T07:35:57;13.70;;;3.55;;
51732;SDS011;39139;53.144;6.244;2023-07-29T07:38:23;11.18;;;3.50;;
51732;SDS011;39139;53.144;6.244;2023-07-29T07:40:55;12.77;;;4.45;;
51732;SDS011;39139;53.144;6.244;2023-07-29T07:43:22;6.50;;;3.58;;
51732;SDS011;39139;53.144;6.244;2023-07-29T07:45:48;8.60;;;3.92;;
51732;SDS011;39139;53.144;6.244;2023-07-29T07:48:14;7.28;;;3.78;;
51732;SDS011;39139;53.144;6.244;2023-07-29T07:50:41;7.97;;;2.92;;
51732;SDS011;39139;53.144;6.244;2023-07-29T07:53:07;7.65;;;3.30;;
51732;SDS011;39139;53.144;6.244;2023-07-29T07:55:33;5.15;;;2.67;;
51732;SDS011;39139;53.144;6.244;2023-07-29T07:57:59;6.88;;;2.70;;
51732;SDS011;39139;53.144;6.244;2023-07-29T08:00:24;10.60;;;3.47;;
51732;SDS011;39139;53.144;6.244;2023-07-29T08:02:50;9.52;;;2.88;;
51732;SDS011;39139;53.144;6.244;2023-07-29T08:05:16;9.27;;;2.67;;
51732;SDS011;39139;53.144;6.244;2023-07-29T08:07:41;4.93;;;2.05;;
51732;SDS011;39139;53.144;6.244;2023-07-29T08:10:07;7.25;;;2.53;;
51732;SDS011;39139;53.144;6.244;2023-07-29T08:12:33;5.63;;;2.42;;
51732;SDS011;39139;53.144;6.244;2023-07-29T08:14:58;9.15;;;2.42;;
51732;SDS011;39139;53.144;6.244;2023-07-29T08:17:24;6.95;;;2.53;;
51732;SDS011;39139;53.144;6.244;2023-07-29T08:19:50;4.93;;;2.17;;
51732;SDS011;39139;53.144;6.244;2023-07-29T08:22:15;5.85;;;2.80;;
51732;SDS011;39139;53.144;6.244;2023-07-29T08:24:42;7.20;;;2.40;;
51732;SDS011;39139;53.144;6.244;2023-07-29T08:27:08;4.40;;;2.15;;
51732;SDS011;39139;53.144;6.244;2023-07-29T08:29:33;4.95;;;2.25;;
51732;SDS011;39139;53.144;6.244;2023-07-29T08:31:59;6.57;;;2.30;;
51732;SDS011;39139;53.144;6.244;2023-07-29T08:34:25;9.05;;;2.25;;
51732;SDS011;39139;53.144;6.244;2023-07-29T08:36:50;5.20;;;2.10;;
51732;SDS011;39139;53.144;6.244;2023-07-29T08:39:16;3.28;;;1.92;;
51732;SDS011;39139;53.144;6.244;2023-07-29T08:42:02;6.20;;;2.20;;
51732;SDS011;39139;53.144;6.244;2023-07-29T08:44:31;5.15;;;2.08;;
51732;SDS011;39139;53.144;6.244;2023-07-29T08:47:06;6.18;;;2.20;;
51732;SDS011;39139;53.144;6.244;2023-07-29T08:49:32;8.52;;;2.50;;
51732;SDS011;39139;53.144;6.244;2023-07-29T08:51:58;4.93;;;1.92;;
51732;SDS011;39139;53.144;6.244;2023-07-29T08:54:26;4.93;;;1.80;;
51732;SDS011;39139;53.144;6.244;2023-07-29T08:56:52;3.92;;;1.92;;
51732;SDS011;39139;53.144;6.244;2023-07-29T08:59:17;4.10;;;1.83;;
51732;SDS011;39139;53.144;6.244;2023-07-29T09:01:45;6.60;;;2.00;;
51732;SDS011;39139;53.144;6.244;2023-07-29T09:04:12;4.28;;;1.48;;
51732;SDS011;39139;53.144;6.244;2023-07-29T09:06:39;5.88;;;2.20;;
51732;SDS011;39139;53.144;6.244;2023-07-29T09:09:07;7.47;;;2.40;;
51732;SDS011;39139;53.144;6.244;2023-07-29T09:11:33;4.85;;;1.48;;
51732;SDS011;39139;53.144;6.244;2023-07-29T09:13:59;5.90;;;1.90;;
51732;SDS011;39139;53.144;6.244;2023-07-29T09:16:24;4.60;;;1.50;;
51732;SDS011;39139;53.144;6.244;2023-07-29T09:18:51;3.90;;;1.33;;
51732;SDS011;39139;53.144;6.244;2023-07-29T09:21:26;2.88;;;1.30;;
51732;SDS011;39139;53.144;6.244;2023-07-29T09:23:53;5.65;;;1.27;;
51732;SDS011;39139;53.144;6.244;2023-07-29T09:26:26;3.40;;;1.10;;
51732;SDS011;39139;53.144;6.244;2023-07-29T09:28:53;3.67;;;1.00;;
51732;SDS011;39139;53.144;6.244;2023-07-29T09:31:23;5.57;;;1.70;;
51732;SDS011;39139;53.144;6.244;2023-07-29T09:33:53;3.58;;;1.45;;
51732;SDS011;39139;53.144;6.244;2023-07-29T09:36:23;6.65;;;1.73;;
51732;SDS011;39139;53.144;6.244;2023-07-29T09:38:51;3.67;;;1.60;;
51732;SDS011;39139;53.144;6.244;2023-07-29T09:41:18;7.32;;;1.90;;
51732;SDS011;39139;53.144;6.244;2023-07-29T09:43:44;6.57;;;1.52;;
51732;SDS011;39139;53.144;6.244;2023-07-29T09:46:09;2.28;;;1.27;;
51732;SDS011;39139;53.144;6.244;2023-07-29T09:48:36;4.00;;;1.30;;
51732;SDS011;39139;53.144;6.244;2023-07-29T09:51:11;11.73;;;1.80;;
51732;SDS011;39139;53.144;6.244;2023-07-29T09:53:46;6.57;;;1.80;;
51732;SDS011;39139;53.144;6.244;2023-07-29T09:56:12;4.63;;;1.40;;
51732;SDS011;39139;53.144;6.244;2023-07-29T09:58:39;5.78;;;1.95;;
51732;SDS011;39139;53.144;6.244;2023-07-29T10:01:08;7.05;;;1.83;;
51732;SDS011;39139;53.144;6.244;2023-07-29T10:03:35;3.20;;;1.55;;
51732;SDS011;39139;53.144;6.244;2023-07-29T10:06:02;10.05;;;1.83;;
51732;SDS011;39139;53.144;6.244;2023-07-29T10:08:31;2.72;;;1.40;;
51732;SDS011;39139;53.144;6.244;2023-07-29T10:11:00;3.70;;;1.50;;
51732;SDS011;39139;53.144;6.244;2023-07-29T10:13:27;5.40;;;2.03;;
51732;SDS011;39139;53.144;6.244;2023-07-29T10:15:53;4.38;;;1.55;;
51732;SDS011;39139;53.144;6.244;2023-07-29T10:18:21;4.75;;;1.70;;
51732;SDS011;39139;53.144;6.244;2023-07-29T10:20:49;6.47;;;1.38;;
51732;SDS011;39139;53.144;6.244;2023-07-29T10:23:16;3.33;;;1.48;;
51732;SDS011;39139;53.144;6.244;2023-07-29T10:25:49;5.57;;;1.38;;
51732;SDS011;39139;53.144;6.244;2023-07-29T10:28:18;5.88;;;1.40;;
51732;SDS011;39139;53.144;6.244;2023-07-29T10:30:48;3.58;;;1.52;;
51732;SDS011;39139;53.144;6.244;2023-07-29T10:33:16;5.28;;;1.55;;
51732;SDS011;39139;53.144;6.244;2023-07-29T10:35:42;5.65;;;1.38;;
51732;SDS011;39139;53.144;6.244;2023-07-29T10:38:09;5.82;;;1.33;;
51732;SDS011;39139;53.144;6.244;2023-07-29T10:40:49;4.88;;;1.15;;
51732;SDS011;39139;53.144;6.244;2023-07-29T10:43:19;5.22;;;1.05;;
51732;SDS011;39139;53.144;6.244;2023-07-29T10:45:52;6.07;;;1.42;;
51732;SDS011;39139;53.144;6.244;2023-07-29T10:53:47;20.08;;;3.45;;
51732;SDS011;39139;53.144;6.244;2023-07-29T10:56:13;5.70;;;1.63;;
51732;SDS011;39139;53.144;6.244;2023-07-29T10:58:51;7.93;;;1.23;;
51732;SDS011;39139;53.144;6.244;2023-07-29T11:01:30;4.30;;;1.20;;
51732;SDS011;39139;53.144;6.244;2023-07-29T11:04:45;6.72;;;1.73;;
51732;SDS011;39139;53.144;6.244;2023-07-29T11:15:12;4.88;;;2.28;;
51732;SDS011;39139;53.144;6.244;2023-07-29T11:17:39;5.82;;;3.10;;
51732;SDS011;39139;53.144;6.244;2023-07-29T11:20:06;8.40;;;2.67;;
51732;SDS011;39139;53.144;6.244;2023-07-29T11:22:33;7.10;;;2.88;;
51732;SDS011;39139;53.144;6.244;2023-07-29T11:24:59;5.45;;;2.38;;
51732;SDS011;39139;53.144;6.244;2023-07-29T11:27:25;5.00;;;1.95;;
51732;SDS011;39139;53.144;6.244;2023-07-29T11:29:50;7.45;;;2.30;;
51732;SDS011;39139;53.144;6.244;2023-07-29T11:32:33;6.75;;;2.17;;
51732;SDS011;39139;53.144;6.244;2023-07-29T11:35:03;6.47;;;2.17;;
51732;SDS011;39139;53.144;6.244;2023-07-29T11:37:34;3.92;;;2.17;;
51732;SDS011;39139;53.144;6.244;2023-07-29T11:40:01;3.78;;;2.00;;
51732;SDS011;39139;53.144;6.244;2023-07-29T11:42:27;8.77;;;2.67;;
51732;SDS011;39139;53.144;6.244;2023-07-29T11:44:53;8.15;;;2.55;;
51732;SDS011;39139;53.144;6.244;2023-07-29T11:47:23;4.18;;;2.08;;
51732;SDS011;39139;53.144;6.244;2023-07-29T11:49:48;4.03;;;2.53;;
51732;SDS011;39139;53.144;6.244;2023-07-29T11:52:14;5.55;;;2.55;;
51732;SDS011;39139;53.144;6.244;2023-07-29T11:54:44;6.35;;;3.00;;
51732;SDS011;39139;53.144;6.244;2023-07-29T11:57:13;5.57;;;2.85;;
51732;SDS011;39139;53.144;6.244;2023-07-29T11:59:40;4.57;;;2.03;;
51732;SDS011;39139;53.144;6.244;2023-07-29T12:02:09;5.22;;;2.15;;
51732;SDS011;39139;53.144;6.244;2023-07-29T12:04:40;5.15;;;2.05;;
51732;SDS011;39139;53.144;6.244;2023-07-29T12:07:07;5.70;;;1.92;;
51732;SDS011;39139;53.144;6.244;2023-07-29T12:09:33;4.95;;;2.60;;
51732;SDS011;39139;53.144;6.244;2023-07-29T12:12:00;4.28;;;2.25;;
51732;SDS011;39139;53.144;6.244;2023-07-29T12:14:30;6.18;;;2.33;;
51732;SDS011;39139;53.144;6.244;2023-07-29T12:16:56;5.72;;;2.60;;
51732;SDS011;39139;53.144;6.244;2023-07-29T12:19:24;6.80;;;2.50;;
51732;SDS011;39139;53.144;6.244;2023-07-29T12:21:56;4.95;;;2.50;;
51732;SDS011;39139;53.144;6.244;2023-07-29T12:24:22;6.13;;;2.47;;
51732;SDS011;39139;53.144;6.244;2023-07-29T12:26:48;3.55;;;2.10;;
51732;SDS011;39139;53.144;6.244;2023-07-29T12:29:14;4.25;;;1.65;;
51732;SDS011;39139;53.144;6.244;2023-07-29T12:31:41;2.75;;;2.00;;
51732;SDS011;39139;53.144;6.244;2023-07-29T12:34:08;5.72;;;1.80;;
51732;SDS011;39139;53.144;6.244;2023-07-29T12:39:30;4.47;;;1.70;;
51732;SDS011;39139;53.144;6.244;2023-07-29T12:41:56;6.47;;;1.98;;
51732;SDS011;39139;53.144;6.244;2023-07-29T12:44:24;5.20;;;1.65;;
51732;SDS011;39139;53.144;6.244;2023-07-29T12:46:51;4.47;;;1.55;;
51732;SDS011;39139;53.144;6.244;2023-07-29T12:49:17;9.63;;;2.03;;
51732;SDS011;39139;53.144;6.244;2023-07-29T12:51:43;3.75;;;1.75;;
51732;SDS011;39139;53.144;6.244;2023-07-29T12:54:09;4.78;;;1.83;;
51732;SDS011;39139;53.144;6.244;2023-07-29T12:56:35;2.90;;;1.88;;
51732;SDS011;39139;53.144;6.244;2023-07-29T12:59:01;5.93;;;2.00;;
51732;SDS011;39139;53.144;6.244;2023-07-29T13:01:27;6.47;;;2.25;;
51732;SDS011;39139;53.144;6.244;2023-07-29T13:03:53;4.03;;;1.70;;
51732;SDS011;39139;53.144;6.244;2023-07-29T13:06:20;5.20;;;1.70;;
51732;SDS011;39139;53.144;6.244;2023-07-29T13:08:46;4.05;;;2.20;;
51732;SDS011;39139;53.144;6.244;2023-07-29T13:11:13;7.00;;;1.73;;
51732;SDS011;39139;53.144;6.244;2023-07-29T13:13:39;6.45;;;1.80;;
51732;SDS011;39139;53.144;6.244;2023-07-29T13:16:05;2.80;;;1.42;;
51732;SDS011;39139;53.144;6.244;2023-07-29T13:18:31;6.53;;;1.88;;
51732;SDS011;39139;53.144;6.244;2023-07-29T13:20:57;4.15;;;1.67;;
51732;SDS011;39139;53.144;6.244;2023-07-29T13:23:23;6.72;;;2.17;;
51732;SDS011;39139;53.144;6.244;2023-07-29T13:25:49;5.10;;;2.33;;
51732;SDS011;39139;53.144;6.244;2023-07-29T13:28:15;4.78;;;2.10;;
51732;SDS011;39139;53.144;6.244;2023-07-29T13:30:41;2.10;;;1.30;;
51732;SDS011;39139;53.144;6.244;2023-07-29T13:33:07;6.68;;;1.98;;
51732;SDS011;39139;53.144;6.244;2023-07-29T13:35:33;8.15;;;2.53;;
51732;SDS011;39139;53.144;6.244;2023-07-29T13:37:59;5.22;;;2.35;;
51732;SDS011;39139;53.144;6.244;2023-07-29T13:40:26;5.80;;;2.10;;
51732;SDS011;39139;53.144;6.244;2023-07-29T13:42:51;4.65;;;2.22;;
51732;SDS011;39139;53.144;6.244;2023-07-29T13:45:17;7.70;;;2.55;;
51732;SDS011;39139;53.144;6.244;2023-07-29T13:47:44;4.22;;;2.15;;
51732;SDS011;39139;53.144;6.244;2023-07-29T13:50:09;8.32;;;3.25;;
51732;SDS011;39139;53.144;6.244;2023-07-29T13:52:36;5.30;;;2.40;;
51732;SDS011;39139;53.144;6.244;2023-07-29T13:55:03;6.18;;;2.35;;
51732;SDS011;39139;53.144;6.244;2023-07-29T13:57:29;8.50;;;2.75;;
51732;SDS011;39139;53.144;6.244;2023-07-29T13:59:55;4.57;;;2.40;;
51732;SDS011;39139;53.144;6.244;2023-07-29T14:02:20;5.85;;;1.70;;
51732;SDS011;39139;53.144;6.244;2023-07-29T14:04:46;8.15;;;2.20;;
51732;SDS011;39139;53.144;6.244;2023-07-29T14:07:12;4.60;;;1.75;;
51732;SDS011;39139;53.144;6.244;2023-07-29T14:09:37;6.90;;;2.03;;
51732;SDS011;39139;53.144;6.244;2023-07-29T14:12:03;4.90;;;2.55;;
51732;SDS011;39139;53.144;6.244;2023-07-29T14:14:30;4.85;;;2.13;;
51732;SDS011;39139;53.144;6.244;2023-07-29T14:16:56;3.92;;;2.10;;
51732;SDS011;39139;53.144;6.244;2023-07-29T14:19:22;7.35;;;2.10;;
51732;SDS011;39139;53.144;6.244;2023-07-29T14:21:48;6.75;;;2.55;;
51732;SDS011;39139;53.144;6.244;2023-07-29T14:24:13;4.13;;;2.38;;
51732;SDS011;39139;53.144;6.244;2023-07-29T14:26:40;6.05;;;1.70;;
51732;SDS011;39139;53.144;6.244;2023-07-29T14:29:06;4.47;;;1.77;;
51732;SDS011;39139;53.144;6.244;2023-07-29T14:31:32;4.85;;;1.77;;
51732;SDS011;39139;53.144;6.244;2023-07-29T14:33:58;5.05;;;1.67;;
51732;SDS011;39139;53.144;6.244;2023-07-29T14:36:24;4.82;;;1.33;;
51732;SDS011;39139;53.144;6.244;2023-07-29T14:38:50;3.08;;;1.50;;
51732;SDS011;39139;53.144;6.244;2023-07-29T14:41:16;4.72;;;2.00;;
51732;SDS011;39139;53.144;6.244;2023-07-29T14:43:42;4.32;;;1.80;;
51732;SDS011;39139;53.144;6.244;2023-07-29T14:46:07;5.22;;;1.48;;
51732;SDS011;39139;53.144;6.244;2023-07-29T14:48:33;3.55;;;1.63;;
51732;SDS011;39139;53.144;6.244;2023-07-29T14:50:58;2.67;;;1.42;;
51732;SDS011;39139;53.144;6.244;2023-07-29T14:53:24;4.50;;;1.27;;
51732;SDS011;39139;53.144;6.244;2023-07-29T14:55:50;5.03;;;1.30;;
51732;SDS011;39139;53.144;6.244;2023-07-29T14:58:16;5.82;;;1.20;;